Monday, October 22, 2018, 12:12 AM EDT
Back to Local

KMVL, Morrisville Stowe State Airport

Location: Morrisville, VT, United States Lat: 44.533
Local Time: 12:12 AM EDT ( 4:12 GMT) Lon: -72.617
Time Zone: US/Eastern Elev: 731 ft

Show me the last for .
Show Decoded

2018-10-21 23:54 METAR KMVL 220354Z AUTO VRB06KT 10SM OVC050 01/M07 A3005 RMK AO2 SLP183
                 T00061067 =
2018-10-21 22:54 METAR KMVL 220254Z AUTO VRB04KT 10SM OVC050 01/M07 A3003 RMK AO2 SNE0156 SLP179
                 P0000 60000 T00061067 53009 =
2018-10-21 21:54 METAR KMVL 220154Z AUTO 30006G17KT 9SM -SN OVC050 01/M06 A3003 RMK AO2 SNE01B28
                 SLP176 P0000 T00061061 =
2018-10-21 20:54 METAR KMVL 220054Z AUTO 30005KT 10SM -SN OVC060 01/M06 A3001 RMK AO2 SNB52
                 SLP172 P0000 T00111056 =
2018-10-21 19:54 METAR KMVL 212354Z AUTO 25009KT 230V290 10SM OVC060 01/M05 A3001 RMK AO2 SNE12
                 SLP170 P0000 60000 T00111050 10028 20000 51020 =
2018-10-21 18:54 METAR KMVL 212254Z AUTO VRB04KT 8SM -SN SCT033 BKN043 OVC060 01/M04 A3000 RMK
                 AO2 SNE26B44 SLP166 P0000 T00061039 =
2018-10-21 18:06 METAR KMVL 212206Z AUTO VRB06KT 5SM -SN FEW032 BKN041 OVC060 01/M03 A2998 RMK
                 AO2 P0000 T00061033 =
2018-10-21 17:54 METAR KMVL 212154Z AUTO 33007G17KT 2 1/2SM -SN SCT033 BKN040 OVC060 01/M03 A2998
                 RMK AO2 SNB03E27B43 SLP160 P0000 T00061033 =
2018-10-21 16:54 METAR KMVL 212054Z AUTO 32013G24KT 10SM FEW041 OVC055 02/M06 A2995 RMK AO2
                 SNB32E44 SLP150 P0000 60000 T00171061 53012 =
2018-10-21 15:54 METAR KMVL 211954Z AUTO 30009G14KT 10SM FEW041 OVC050 02/M06 A2993 RMK AO2
                 SNB00E11B35E47 SLP145 P0000 T00171056 =
2018-10-21 14:54 METAR KMVL 211854Z AUTO 30010G17KT 10SM FEW043 OVC050 02/M06 A2992 RMK AO2 PK
                 WND 30026/1841 SNB27E28 SLP139 P0000 T00221061 =
2018-10-21 13:54 METAR KMVL 211754Z AUTO 32007G16KT 290V350 10SM BKN041 OVC049 01/M06 A2991 RMK
                 AO2 SNE1656 SLP136 P0000 60000 T00111056 10017 20011 51009 =
2018-10-21 12:54 METAR KMVL 211654Z AUTO 32009G19KT 250V350 9SM -SN BKN037 OVC046 01/M05 A2990
                 RMK AO2 SNB00 SLP134 P0000 T00111050 =
2018-10-21 11:54 METAR KMVL 211554Z AUTO 31010G18KT 10SM OVC037 01/M05 A2990 RMK AO2 SLP131
                 T00111050 =
2018-10-21 10:54 METAR KMVL 211454Z AUTO 35008KT 10SM OVC035 01/M04 A2988 RMK AO2 SLP127
                 T00111044 51024 =
2018-10-21 09:54 METAR KMVL 211354Z AUTO 31010G15KT 280V340 10SM OVC035 01/M06 A2987 RMK AO2
                 SLP120 T00111056 =
2018-10-21 08:54 METAR KMVL 211254Z AUTO 35010G16KT 300V010 10SM OVC038 02/M05 A2985 RMK AO2
                 SLP114 T00171050 =
2018-10-21 07:54 METAR KMVL 211154Z AUTO 35007KT 300V010 10SM OVC042 01/M04 A2981 RMK AO2 SLP101
                 T00111044 10044 20011 53026 =
2018-10-21 07:38 METAR KMVL 211138Z AUTO 32008KT 290V360 10SM SCT028 OVC041 02/M04 A2980 RMK AO2
                 T00171039 TSNO =
2018-10-21 07:11 METAR KMVL 211111Z AUTO VRB05KT 10SM OVC028 02/M03 A2979 RMK AO2 T00171033 =
2018-10-21 06:54 METAR KMVL 211054Z AUTO 35009KT 10SM OVC030 02/M04 A2978 RMK AO2 SLP091
                 T00171039 =
2018-10-21 06:35 METAR KMVL 211035Z AUTO 34007G16KT 10SM BKN030 OVC035 02/M04 A2978 RMK AO2
                 T00171039 =
2018-10-21 05:54 METAR KMVL 210954Z AUTO 33007KT 10SM OVC026 02/M03 A2976 RMK AO2 SLP082
                 T00221028 =
2018-10-21 04:54 METAR KMVL 210854Z AUTO VRB04KT 10SM OVC024 02/M02 A2973 RMK AO2 SLP073
                 T00221022 53024 =
2018-10-21 04:19 METAR KMVL 210819Z AUTO 33010G16KT 10SM BKN022 BKN028 03/M02 A2971 RMK AO2
                 T00281017 =
2018-10-21 03:54 METAR KMVL 210754Z AUTO VRB06KT 10SM SCT029 03/M02 A2970 RMK AO2 SLP062
                 T00281022 =
2018-10-21 03:24 METAR KMVL 210724Z AUTO 10SM BKN025 BKN031 OVC065 04/M01 A2969 RMK AO2 T00391006
                 =
2018-10-21 02:54 METAR KMVL 210654Z AUTO 31007KT 10SM BKN065 04/M01 A2968 RMK AO2 SLP056
                 T00391011 =
2018-10-21 01:54 METAR KMVL 210554Z AUTO 35009KT 10SM BKN065 04/M01 A2966 RMK AO2 SLP048
                 T00441011 10106 20044 51015 =
2018-10-21 00:54 METAR KMVL 210454Z AUTO 33007KT 10SM BKN055 06/M01 A2965 RMK AO2 SLP043
                 T00561011 401500044 =

Support USWX by starting your Amazon purchase here.